Hobbs, New Mexico
Current Conditions -  °F | °C
As of 6:35 PM on Tuesday 21 Oct 2014 (Local Time) from KHOB Reporting Station
Clear Clear  
Wind Chill: 63°   Ceiling: Unl
Heat Index: 63°   Visibility: 10mi
Dew Point: 57°   Wind: 5mph
Humidity: 82%   Direction: 130°SE
Pressure: 30.08"   Gusts: NA
Location:  32.7°N, 103.12°W
Report Text: KHOB 220035Z AUTO 13004KT 10SM CLR 17/14 A3008 RMK AO2
Loading
Personal Weather Stations






























Interactive Weather Map
Tropical Storm Tracking
New forecast layout! Learn more

10-Day Weather Forecast

Advertisements
Track Severe Weather on mobile